createdAt,value
2018-09-17T00:01:14.786Z,12.88
2018-09-17T00:03:44.016Z,12.77
2018-09-17T00:06:13.235Z,12.73
2018-09-17T00:08:42.558Z,12.89
2018-09-17T00:11:11.819Z,12.84
2018-09-17T00:13:41.038Z,12.80
2018-09-17T00:16:10.266Z,12.68
2018-09-17T00:18:39.507Z,12.66
2018-09-17T00:21:08.733Z,12.60
2018-09-17T00:23:37.969Z,12.57
2018-09-17T00:26:07.231Z,12.60
2018-09-17T00:28:36.457Z,12.59
2018-09-17T00:31:05.709Z,12.58
2018-09-17T00:33:34.914Z,12.70
2018-09-17T00:36:04.153Z,12.67
2018-09-17T00:38:33.438Z,12.72
2018-09-17T00:41:02.660Z,12.70
2018-09-17T00:43:31.896Z,12.62
2018-09-17T00:46:01.153Z,12.69
2018-09-17T00:48:30.422Z,12.69
2018-09-17T00:50:59.701Z,12.53
2018-09-17T00:53:29.006Z,12.51
2018-09-17T00:55:58.266Z,12.58
2018-09-17T00:58:27.558Z,12.53
2018-09-17T01:00:56.824Z,12.46
2018-09-17T01:03:26.109Z,12.39
2018-09-17T01:05:55.383Z,12.34
2018-09-17T01:08:24.703Z,12.30
2018-09-17T01:10:54.002Z,12.32
2018-09-17T01:13:23.285Z,12.37
2018-09-17T01:15:52.578Z,12.34
2018-09-17T01:18:21.842Z,12.40
2018-09-17T01:20:51.129Z,12.42
2018-09-17T01:23:20.399Z,12.36
2018-09-17T01:25:49.691Z,12.36
2018-09-17T01:28:18.933Z,12.41
2018-09-17T01:30:48.193Z,12.33
2018-09-17T01:33:17.442Z,12.41
2018-09-17T01:35:46.771Z,12.42
2018-09-17T01:38:16.086Z,12.37
2018-09-17T01:40:45.399Z,12.39
2018-09-17T01:43:14.674Z,12.53
2018-09-17T01:45:43.971Z,12.59
2018-09-17T01:48:13.248Z,12.62
2018-09-17T01:50:42.499Z,12.62
2018-09-17T01:53:11.746Z,12.58
2018-09-17T01:55:40.961Z,12.49
2018-09-17T01:58:10.178Z,12.53
2018-09-17T02:00:39.446Z,12.61
2018-09-17T02:03:08.804Z,12.54
2018-09-17T02:05:38.066Z,12.46
2018-09-17T02:08:07.620Z,12.35
2018-09-17T02:10:36.821Z,12.27
2018-09-17T02:13:06.050Z,12.22
2018-09-17T02:15:35.283Z,12.23
2018-09-17T02:18:04.506Z,12.29
2018-09-17T02:20:33.739Z,12.17
2018-09-17T02:23:02.962Z,12.24
2018-09-17T02:25:32.199Z,12.25
2018-09-17T02:28:01.425Z,12.23
2018-09-17T02:30:30.650Z,12.24
2018-09-17T02:32:59.858Z,12.21
2018-09-17T02:35:29.150Z,12.24
2018-09-17T02:37:58.402Z,12.26
2018-09-17T02:40:27.692Z,12.25
2018-09-17T02:42:56.928Z,12.25
2018-09-17T02:45:26.202Z,12.24
2018-09-17T02:47:55.436Z,12.18
2018-09-17T02:50:24.733Z,12.17
2018-09-17T02:52:53.965Z,12.17
2018-09-17T02:55:23.240Z,12.13
2018-09-17T02:57:52.466Z,12.08
2018-09-17T03:00:21.837Z,12.21
2018-09-17T03:02:52.568Z,12.28
2018-09-17T03:05:21.934Z,12.23
2018-09-17T03:07:51.222Z,12.15
2018-09-17T03:10:20.471Z,12.13
2018-09-17T03:12:49.715Z,12.07
2018-09-17T03:15:36.065Z,12.16
2018-09-17T03:18:05.358Z,12.15
2018-09-17T03:20:34.535Z,12.13
2018-09-17T03:23:03.841Z,12.16
2018-09-17T03:25:33.054Z,12.27
2018-09-17T03:28:02.282Z,12.33
2018-09-17T03:30:31.510Z,12.26
2018-09-17T03:33:00.752Z,12.18
2018-09-17T03:35:29.963Z,12.19
2018-09-17T03:38:19.196Z,12.17
2018-09-17T03:40:48.465Z,12.15
2018-09-17T03:43:17.735Z,12.14
2018-09-17T03:45:47.002Z,12.13
2018-09-17T03:48:16.262Z,12.10
2018-09-17T03:50:45.554Z,12.03
2018-09-17T03:53:14.833Z,12.02
2018-09-17T03:55:44.095Z,12.03
2018-09-17T03:58:13.478Z,11.99
2018-09-17T04:00:42.814Z,11.98
2018-09-17T04:03:12.150Z,11.94
2018-09-17T04:05:41.515Z,11.93
2018-09-17T04:08:10.810Z,11.89
2018-09-17T04:10:40.181Z,11.86
2018-09-17T04:13:10.310Z,11.78
2018-09-17T04:15:39.568Z,11.73
2018-09-17T04:18:08.857Z,11.78
2018-09-17T04:20:38.165Z,11.74
2018-09-17T04:23:07.458Z,11.81
2018-09-17T04:25:36.705Z,11.81
2018-09-17T04:28:06.159Z,11.72
2018-09-17T04:30:35.439Z,11.69
2018-09-17T04:33:06.025Z,11.67
2018-09-17T04:35:35.234Z,11.65
2018-09-17T04:38:04.482Z,11.61
2018-09-17T04:40:33.673Z,11.52
2018-09-17T04:43:02.909Z,11.56
2018-09-17T04:45:32.133Z,11.69
2018-09-17T04:48:01.366Z,11.74
2018-09-17T04:50:30.623Z,11.70
2018-09-17T04:52:59.829Z,11.59
2018-09-17T04:55:29.118Z,11.57
2018-09-17T04:57:58.386Z,11.62
2018-09-17T05:00:27.744Z,11.70
2018-09-17T05:02:57.082Z,11.69
2018-09-17T05:05:26.481Z,11.58
2018-09-17T05:07:55.774Z,11.51
2018-09-17T05:10:25.289Z,11.61
2018-09-17T05:12:54.554Z,11.58
2018-09-17T05:15:23.783Z,11.70
2018-09-17T05:17:53.031Z,11.71
2018-09-17T05:20:22.271Z,11.74
2018-09-17T05:22:51.555Z,11.62
2018-09-17T05:25:20.787Z,11.67
2018-09-17T05:27:50.023Z,11.81
2018-09-17T05:30:19.266Z,12.05
2018-09-17T05:32:48.503Z,12.07
2018-09-17T05:35:17.770Z,11.94
2018-09-17T05:37:47.098Z,11.82
2018-09-17T05:40:16.651Z,11.80
2018-09-17T05:42:45.907Z,11.88
2018-09-17T05:45:15.191Z,11.96
2018-09-17T05:47:44.398Z,11.95
2018-09-17T05:50:13.646Z,11.99
2018-09-17T05:52:42.896Z,12.15
2018-09-17T05:55:12.143Z,12.23
2018-09-17T05:57:41.398Z,12.28
2018-09-17T06:00:10.647Z,12.43
2018-09-17T06:02:39.879Z,12.57
2018-09-17T06:05:09.111Z,12.73
2018-09-17T06:07:38.346Z,12.88
2018-09-17T06:10:12.739Z,12.98
2018-09-17T06:12:42.474Z,13.11
2018-09-17T06:15:11.716Z,13.20
2018-09-17T06:17:40.958Z,13.33
2018-09-17T06:20:10.253Z,13.55
2018-09-17T06:22:40.455Z,13.74
2018-09-17T06:25:09.721Z,13.96
2018-09-17T06:27:38.908Z,14.14
2018-09-17T06:30:08.163Z,14.28
2018-09-17T06:32:37.365Z,14.44
2018-09-17T06:35:06.577Z,14.64
2018-09-17T06:37:35.820Z,14.85
2018-09-17T06:40:05.086Z,14.97
2018-09-17T06:42:34.351Z,15.15
2018-09-17T06:45:03.693Z,15.20
2018-09-17T06:47:32.902Z,15.48
2018-09-17T06:50:02.178Z,15.48
2018-09-17T06:52:31.473Z,15.59
2018-09-17T06:55:00.778Z,15.86
2018-09-17T06:57:30.094Z,16.14
2018-09-17T06:59:59.329Z,16.30
2018-09-17T07:02:28.589Z,16.23
2018-09-17T07:04:57.882Z,16.43
2018-09-17T07:07:27.162Z,16.60
2018-09-17T07:09:56.439Z,16.80
2018-09-17T07:12:25.816Z,16.96
2018-09-17T07:14:55.103Z,17.24
2018-09-17T07:17:24.404Z,17.30
2018-09-17T07:19:54.071Z,17.40
2018-09-17T07:22:23.372Z,17.61
2018-09-17T07:24:52.721Z,17.74
2018-09-17T07:27:22.034Z,17.62
2018-09-17T07:29:51.598Z,17.63
2018-09-17T07:32:20.924Z,17.88
2018-09-17T07:34:50.186Z,18.17
2018-09-17T07:37:19.461Z,18.36
2018-09-17T07:39:48.696Z,18.41
2018-09-17T07:42:17.946Z,18.55
2018-09-17T07:44:47.166Z,18.70
2018-09-17T07:47:16.469Z,18.88
2018-09-17T07:49:46.054Z,18.95
2018-09-17T07:52:15.539Z,19.26
2018-09-17T07:54:45.007Z,19.56
2018-09-17T07:57:14.246Z,19.76
2018-09-17T07:59:43.513Z,19.56
2018-09-17T08:02:12.698Z,19.72
2018-09-17T08:04:42.018Z,19.72
2018-09-17T08:07:11.236Z,20.14
2018-09-17T08:09:40.496Z,20.11
2018-09-17T08:12:09.775Z,20.23
2018-09-17T08:14:38.999Z,20.34
2018-09-17T08:17:08.323Z,20.48
2018-09-17T08:19:37.550Z,20.74
2018-09-17T08:22:06.778Z,20.86
2018-09-17T08:24:36.008Z,20.94
2018-09-17T08:27:05.251Z,21.00
2018-09-17T08:29:34.497Z,20.97
2018-09-17T08:32:03.717Z,21.21
2018-09-17T08:34:33.005Z,21.29
2018-09-17T08:37:02.219Z,21.23
2018-09-17T08:39:31.451Z,21.34
2018-09-17T08:42:00.817Z,21.47
2018-09-17T08:44:30.054Z,21.55
2018-09-17T08:46:59.288Z,21.09
2018-09-17T08:49:28.529Z,21.63
2018-09-17T08:51:57.825Z,21.87
2018-09-17T08:54:27.102Z,21.84
2018-09-17T08:56:58.345Z,21.82
2018-09-17T08:59:32.736Z,21.46
2018-09-17T09:02:07.210Z,22.00
2018-09-17T09:04:41.566Z,21.94
2018-09-17T09:07:15.839Z,21.78
2018-09-17T09:09:45.103Z,22.30
2018-09-17T09:12:23.426Z,22.15
2018-09-17T09:14:55.623Z,21.98
2018-09-17T09:17:24.853Z,22.03
2018-09-17T09:19:54.085Z,22.35
2018-09-17T09:22:23.313Z,22.42
2018-09-17T09:24:52.568Z,22.18
2018-09-17T09:27:21.777Z,22.42
2018-09-17T09:29:51.122Z,22.78
2018-09-17T09:32:20.398Z,22.91
2018-09-17T09:34:49.652Z,22.75
2018-09-17T09:37:18.989Z,22.93
2018-09-17T09:39:48.346Z,22.81
2018-09-17T09:42:17.542Z,22.94
2018-09-17T09:44:46.774Z,22.54
2018-09-17T09:47:15.995Z,22.75
2018-09-17T09:49:45.220Z,23.26
2018-09-17T09:52:14.430Z,22.80
2018-09-17T09:54:43.661Z,23.34
2018-09-17T09:57:12.994Z,23.39
2018-09-17T09:59:42.262Z,23.37
2018-09-17T10:02:16.733Z,23.38
2018-09-17T10:04:46.028Z,23.34
2018-09-17T10:07:15.283Z,23.64
2018-09-17T10:09:49.634Z,23.54
2018-09-17T10:12:23.956Z,23.62
2018-09-17T10:14:58.456Z,23.70
2018-09-17T10:17:32.862Z,23.82
2018-09-17T10:20:02.164Z,23.90
2018-09-17T10:22:31.472Z,24.22
2018-09-17T10:25:00.715Z,24.48
2018-09-17T10:27:29.934Z,24.53
2018-09-17T10:29:59.245Z,24.72
2018-09-17T10:32:28.439Z,25.05
2018-09-17T10:34:57.705Z,24.99
2018-09-17T10:37:27.007Z,24.75
2018-09-17T10:39:56.263Z,24.71
2018-09-17T10:42:25.632Z,24.31
2018-09-17T10:44:55.029Z,24.22
2018-09-17T10:47:24.899Z,24.32
2018-09-17T10:49:54.204Z,24.64
2018-09-17T10:52:23.865Z,24.14
2018-09-17T10:54:53.210Z,24.72
2018-09-17T10:57:22.520Z,25.12
2018-09-17T10:59:51.816Z,25.10
2018-09-17T11:02:21.038Z,25.17
2018-09-17T11:04:50.326Z,24.91
2018-09-17T11:07:19.590Z,25.06
2018-09-17T11:09:48.998Z,25.18
2018-09-17T11:12:18.406Z,25.22
2018-09-17T11:14:47.658Z,25.36
2018-09-17T11:17:16.931Z,25.37
2018-09-17T11:19:46.183Z,25.56
2018-09-17T11:22:15.495Z,26.02
2018-09-17T11:24:44.731Z,26.14
2018-09-17T11:27:13.967Z,25.99
2018-09-17T11:29:43.193Z,26.38
2018-09-17T11:32:12.441Z,26.24
2018-09-17T11:34:41.671Z,26.31
2018-09-17T11:37:10.974Z,25.91
2018-09-17T11:39:40.258Z,25.64
2018-09-17T11:42:09.548Z,26.02
2018-09-17T11:44:38.804Z,25.98
2018-09-17T11:47:08.248Z,26.19
2018-09-17T11:49:37.515Z,26.40
2018-09-17T11:52:06.872Z,26.25
2018-09-17T11:54:36.145Z,26.20
2018-09-17T11:57:05.450Z,26.34
2018-09-17T11:59:34.715Z,26.32
2018-09-17T12:02:06.049Z,26.51
2018-09-17T12:04:40.526Z,26.28
2018-09-17T12:07:15.132Z,26.35
2018-09-17T12:09:44.414Z,26.65
2018-09-17T12:12:13.750Z,26.17
2018-09-17T12:14:43.029Z,26.68
2018-09-17T12:17:12.328Z,26.65
2018-09-17T12:19:41.602Z,26.19
2018-09-17T12:22:10.878Z,26.39
2018-09-17T12:24:40.144Z,26.35
2018-09-17T12:27:09.441Z,26.67
2018-09-17T12:29:38.721Z,26.62
2018-09-17T12:32:08.061Z,26.98
2018-09-17T12:34:37.339Z,26.90
2018-09-17T12:37:06.640Z,26.50
2018-09-17T12:39:35.906Z,26.37
2018-09-17T12:42:05.193Z,26.53
2018-09-17T12:44:34.449Z,26.67
2018-09-17T12:47:03.793Z,27.09
2018-09-17T12:49:33.091Z,27.14
2018-09-17T12:52:02.352Z,26.94
2018-09-17T12:54:31.683Z,27.17
2018-09-17T12:57:00.989Z,27.54
2018-09-17T12:59:30.315Z,27.68
2018-09-17T13:01:59.625Z,27.40
2018-09-17T13:04:28.957Z,27.28
2018-09-17T13:06:58.237Z,27.22
2018-09-17T13:09:27.507Z,27.21
2018-09-17T13:11:56.789Z,26.75
2018-09-17T13:14:26.050Z,26.89
2018-09-17T13:16:55.434Z,26.90
2018-09-17T13:19:24.744Z,26.68
2018-09-17T13:21:54.045Z,26.84
2018-09-17T13:24:23.355Z,26.71
2018-09-17T13:26:52.657Z,26.41
2018-09-17T13:29:22.027Z,26.61
2018-09-17T13:31:51.352Z,26.55
2018-09-17T13:34:20.673Z,26.41
2018-09-17T13:36:49.954Z,26.58
2018-09-17T13:39:19.238Z,26.50
2018-09-17T13:41:48.501Z,26.36
2018-09-17T13:44:17.917Z,26.16
2018-09-17T13:46:47.181Z,26.60
2018-09-17T13:49:16.457Z,26.76
2018-09-17T13:51:45.763Z,26.60
2018-09-17T13:54:16.580Z,26.63
2018-09-17T13:56:45.846Z,26.72
2018-09-17T13:59:15.181Z,26.58
2018-09-17T14:01:44.567Z,26.74
2018-09-17T14:04:13.900Z,27.05
2018-09-17T14:06:42.888Z,27.36
2018-09-17T14:09:13.180Z,27.33
2018-09-17T14:11:42.798Z,27.38
2018-09-17T14:14:12.122Z,26.98
2018-09-17T14:16:41.389Z,27.10
2018-09-17T14:19:10.628Z,27.30
2018-09-17T14:21:39.935Z,27.14
2018-09-17T14:24:09.179Z,27.41
2018-09-17T14:26:38.457Z,27.47
2018-09-17T14:29:07.782Z,27.26
2018-09-17T14:31:42.124Z,27.23
2018-09-17T14:34:11.413Z,27.02
2018-09-17T14:36:40.682Z,27.15
2018-09-17T14:39:14.111Z,27.27
2018-09-17T14:41:47.937Z,27.35
2018-09-17T14:44:36.665Z,27.33
2018-09-17T14:47:06.024Z,27.05
2018-09-17T14:49:42.630Z,27.10
2018-09-17T14:52:17.270Z,26.94
2018-09-17T14:54:49.461Z,26.86
2018-09-17T14:57:22.294Z,26.71
2018-09-17T14:59:56.072Z,26.77
2018-09-17T15:02:30.820Z,26.99
2018-09-17T15:05:04.540Z,27.06
2018-09-17T15:07:41.026Z,26.71
2018-09-17T15:10:13.398Z,26.55
2018-09-17T15:12:45.712Z,26.71
2018-09-17T15:15:19.385Z,26.90
2018-09-17T15:17:51.239Z,26.96
2018-09-17T15:20:27.612Z,26.95
2018-09-17T15:23:06.031Z,27.01
2018-09-17T15:25:39.532Z,26.87
2018-09-17T15:28:09.097Z,26.84
2018-09-17T15:30:38.421Z,26.55
2018-09-17T15:33:08.123Z,26.52
2018-09-17T15:35:42.463Z,26.59
2018-09-17T15:38:11.759Z,26.62
2018-09-17T15:40:53.560Z,26.64
2018-09-17T15:43:34.072Z,26.52
2018-09-17T15:46:04.543Z,26.46
2018-09-17T15:48:34.093Z,26.48
2018-09-17T15:51:04.690Z,26.43
2018-09-17T15:53:35.892Z,26.36
2018-09-17T15:56:05.542Z,26.32
2018-09-17T15:58:38.093Z,26.30
2018-09-17T16:01:11.345Z,26.28
2018-09-17T16:03:40.955Z,26.20
2018-09-17T16:06:11.323Z,26.26
2018-09-17T16:08:40.690Z,26.23
2018-09-17T16:11:09.961Z,26.14
2018-09-17T16:13:40.383Z,26.11
2018-09-17T16:16:09.828Z,26.08
2018-09-17T16:18:39.350Z,25.97
2018-09-17T16:21:08.741Z,25.81
2018-09-17T16:23:38.062Z,25.72
2018-09-17T16:26:07.737Z,25.76
2018-09-17T16:28:37.030Z,25.64
2018-09-17T16:31:06.522Z,25.64
2018-09-17T16:33:35.891Z,25.55
2018-09-17T16:36:05.190Z,25.50
2018-09-17T16:38:35.578Z,25.42
2018-09-17T16:41:05.951Z,25.40
2018-09-17T16:43:35.469Z,25.38
2018-09-17T16:46:04.858Z,25.20
2018-09-17T16:48:34.282Z,25.11
2018-09-17T16:51:03.671Z,24.94
2018-09-17T16:53:33.229Z,24.90
2018-09-17T16:56:02.697Z,24.63
2018-09-17T16:58:32.784Z,24.55
2018-09-17T17:01:02.708Z,24.36
2018-09-17T17:03:32.048Z,24.19
2018-09-17T17:06:01.514Z,24.02
2018-09-17T17:08:30.862Z,23.83
2018-09-17T17:11:00.243Z,23.71
2018-09-17T17:13:29.775Z,23.51
2018-09-17T17:16:03.643Z,23.48
2018-09-17T17:18:33.042Z,23.36
2018-09-17T17:21:03.764Z,23.17
2018-09-17T17:23:39.126Z,22.83
2018-09-17T17:26:08.758Z,22.71
2018-09-17T17:28:38.222Z,22.46
2018-09-17T17:31:07.596Z,22.24
2018-09-17T17:33:37.156Z,22.01
2018-09-17T17:36:06.637Z,21.91
2018-09-17T17:38:36.088Z,21.66
2018-09-17T17:41:07.562Z,21.45
2018-09-17T17:43:37.171Z,21.31
2018-09-17T17:46:07.145Z,21.15
2018-09-17T17:48:37.687Z,21.12
2018-09-17T17:51:07.746Z,20.94
2018-09-17T17:53:37.184Z,20.84
2018-09-17T17:56:06.471Z,20.70
2018-09-17T17:58:35.873Z,20.55
2018-09-17T18:01:05.368Z,20.40
2018-09-17T18:03:34.681Z,20.23
2018-09-17T18:06:04.053Z,20.08
2018-09-17T18:08:33.494Z,19.94
2018-09-17T18:11:02.802Z,19.76
2018-09-17T18:13:32.501Z,19.66
2018-09-17T18:16:01.844Z,19.55
2018-09-17T18:18:31.516Z,19.48
2018-09-17T18:21:03.454Z,19.43
2018-09-17T18:23:33.081Z,19.37
2018-09-17T18:26:03.686Z,19.28
2018-09-17T18:28:33.088Z,19.12
2018-09-17T18:31:03.941Z,19.00
2018-09-17T18:33:33.330Z,18.93
2018-09-17T18:36:02.616Z,18.84
2018-09-17T18:38:31.957Z,18.80
2018-09-17T18:41:01.614Z,18.67
2018-09-17T18:43:30.909Z,18.56
2018-09-17T18:46:00.377Z,18.49
2018-09-17T18:48:29.776Z,18.39
2018-09-17T18:50:58.988Z,18.24
2018-09-17T18:53:28.244Z,18.18
2018-09-17T18:55:58.627Z,18.19
2018-09-17T18:58:29.270Z,18.10
2018-09-17T19:00:59.031Z,17.96
2018-09-17T19:03:28.384Z,17.90
2018-09-17T19:05:57.894Z,17.85
2018-09-17T19:08:27.416Z,17.82
2018-09-17T19:10:56.700Z,17.77
2018-09-17T19:13:27.590Z,17.71
2018-09-17T19:15:58.511Z,17.65
2018-09-17T19:18:27.830Z,17.55
2018-09-17T19:20:58.982Z,17.45
2018-09-17T19:24:07.007Z,17.43
2018-09-17T19:26:36.277Z,17.35
2018-09-17T19:29:11.010Z,17.24
2018-09-17T19:31:40.388Z,17.17
2018-09-17T19:34:11.626Z,17.11
2018-09-17T19:36:41.391Z,17.02
2018-09-17T19:39:18.462Z,16.99
2018-09-17T19:41:49.234Z,16.91
2018-09-17T19:44:18.732Z,16.81
2018-09-17T19:46:48.121Z,16.88
2018-09-17T19:49:20.927Z,16.80
2018-09-17T19:51:56.381Z,16.74
2018-09-17T19:54:25.795Z,16.72
2018-09-17T19:56:54.964Z,16.66
2018-09-17T19:59:29.901Z,16.58
2018-09-17T20:01:59.142Z,16.56
2018-09-17T20:04:33.948Z,16.59
2018-09-17T20:07:03.221Z,16.47
2018-09-17T20:09:32.583Z,16.37
2018-09-17T20:12:05.290Z,16.26
2018-09-17T20:14:34.660Z,16.23
2018-09-17T20:17:03.936Z,16.23
2018-09-17T20:19:33.284Z,16.13
2018-09-17T20:22:02.559Z,16.05
2018-09-17T20:24:31.926Z,15.95
2018-09-17T20:27:01.245Z,15.99
2018-09-17T20:29:30.559Z,15.94
2018-09-17T20:32:00.477Z,15.87
2018-09-17T20:34:29.776Z,15.86
2018-09-17T20:36:59.087Z,15.82
2018-09-17T20:39:28.404Z,15.74
2018-09-17T20:41:57.738Z,15.73
2018-09-17T20:44:26.996Z,15.72
2018-09-17T20:46:56.239Z,15.70
2018-09-17T20:49:25.501Z,15.71
2018-09-17T20:51:54.729Z,15.65
2018-09-17T20:54:23.941Z,15.55
2018-09-17T20:56:52.917Z,15.47
2018-09-17T20:59:22.168Z,15.36
2018-09-17T21:01:51.541Z,15.28
2018-09-17T21:04:20.719Z,15.21
2018-09-17T21:06:49.984Z,15.25
2018-09-17T21:09:19.290Z,15.33
2018-09-17T21:11:48.526Z,15.24
2018-09-17T21:14:17.735Z,15.23
2018-09-17T21:16:47.153Z,15.22
2018-09-17T21:19:16.450Z,15.24
2018-09-17T21:21:45.800Z,15.20
2018-09-17T21:24:15.015Z,15.06
2018-09-17T21:26:44.385Z,14.91
2018-09-17T21:29:13.687Z,14.87
2018-09-17T21:31:42.970Z,14.81
2018-09-17T21:34:12.235Z,14.86
2018-09-17T21:36:41.478Z,14.86
2018-09-17T21:39:12.571Z,14.78
2018-09-17T21:41:41.820Z,14.73
2018-09-17T21:44:11.106Z,14.76
2018-09-17T21:46:40.338Z,14.79
2018-09-17T21:49:09.698Z,14.69
2018-09-17T21:51:38.925Z,14.68
2018-09-17T21:54:08.178Z,14.65
2018-09-17T21:56:37.501Z,14.65
2018-09-17T21:59:06.699Z,14.68
2018-09-17T22:01:35.909Z,14.65
2018-09-17T22:04:05.117Z,14.60
2018-09-17T22:06:34.349Z,14.59
2018-09-17T22:09:03.862Z,14.61
2018-09-17T22:11:33.097Z,14.50
2018-09-17T22:14:02.326Z,14.56
2018-09-17T22:16:31.605Z,14.53
2018-09-17T22:19:00.847Z,14.51
2018-09-17T22:21:30.117Z,14.47
2018-09-17T22:23:59.421Z,14.43
2018-09-17T22:26:28.674Z,14.43
2018-09-17T22:28:57.929Z,14.40
2018-09-17T22:31:27.366Z,14.47
2018-09-17T22:33:56.694Z,14.50
2018-09-17T22:36:25.916Z,14.51
2018-09-17T22:38:55.237Z,14.33
2018-09-17T22:41:24.586Z,14.33
2018-09-17T22:43:53.941Z,14.35
2018-09-17T22:46:23.155Z,14.32
2018-09-17T22:48:52.513Z,14.28
2018-09-17T22:51:21.803Z,14.28
2018-09-17T22:53:51.109Z,14.19
2018-09-17T22:56:20.401Z,14.16
2018-09-17T22:58:49.661Z,14.11
2018-09-17T23:01:18.924Z,14.21
2018-09-17T23:03:48.202Z,14.14
2018-09-17T23:06:17.462Z,14.24
2018-09-17T23:08:46.738Z,14.04
2018-09-17T23:11:15.993Z,14.04
2018-09-17T23:13:45.294Z,14.00
2018-09-17T23:16:14.572Z,13.94
2018-09-17T23:18:43.844Z,13.95
2018-09-17T23:21:13.093Z,13.99
2018-09-17T23:23:42.360Z,13.96
2018-09-17T23:26:11.612Z,13.94
2018-09-17T23:28:40.895Z,13.89
2018-09-17T23:31:10.154Z,13.82
2018-09-17T23:33:39.445Z,13.79
2018-09-17T23:36:08.946Z,13.74
2018-09-17T23:38:37.965Z,13.81
2018-09-17T23:41:07.192Z,13.80
2018-09-17T23:43:36.385Z,13.79
2018-09-17T23:46:05.622Z,13.76
2018-09-17T23:48:34.862Z,13.80
2018-09-17T23:51:04.086Z,13.79
2018-09-17T23:53:33.352Z,13.72
2018-09-17T23:56:02.569Z,13.61
2018-09-17T23:58:31.885Z,13.60
